createdAt,value
2022-08-24T00:02:44.251Z,66.82
2022-08-24T00:07:47.218Z,66.35
2022-08-24T00:12:50.994Z,66.63
2022-08-24T00:17:55.258Z,66.47
2022-08-24T00:22:58.120Z,66.49
2022-08-24T00:28:01.461Z,66.41
2022-08-24T00:33:05.672Z,66.39
2022-08-24T00:38:08.529Z,66.35
2022-08-24T00:43:12.886Z,66.47
2022-08-24T00:48:22.962Z,66.51
2022-08-24T00:53:29.877Z,66.26
2022-08-24T00:58:36.699Z,66.53
2022-08-24T01:03:42.931Z,66.33
2022-08-24T01:08:46.214Z,66.16
2022-08-24T01:13:56.130Z,66.43
2022-08-24T01:19:00.341Z,66.10
2022-08-24T01:24:11.514Z,66.51
2022-08-24T01:29:18.271Z,66.65
2022-08-24T01:34:22.615Z,66.53
2022-08-24T01:39:31.113Z,66.41
2022-08-24T01:44:36.182Z,66.79
2022-08-24T01:49:41.604Z,66.51
2022-08-24T01:54:46.758Z,66.82
2022-08-24T01:59:52.297Z,66.88
2022-08-24T02:04:56.152Z,66.60
2022-08-24T02:10:00.330Z,66.44
2022-08-24T02:15:03.514Z,66.46
2022-08-24T02:20:08.816Z,66.79
2022-08-24T02:25:14.175Z,66.60
2022-08-24T02:30:17.516Z,66.77
2022-08-24T02:35:20.674Z,66.83
2022-08-24T02:40:26.472Z,66.75
2022-08-24T02:45:29.382Z,66.79
2022-08-24T02:50:32.544Z,66.79
2022-08-24T02:55:39.275Z,66.99
2022-08-24T03:00:43.663Z,66.98
2022-08-24T03:05:46.613Z,67.03
2022-08-24T03:10:50.872Z,66.60
2022-08-24T03:15:54.241Z,66.96
2022-08-24T03:20:59.952Z,66.61
2022-08-24T03:26:05.074Z,66.16
2022-08-24T03:31:08.961Z,65.76
2022-08-24T03:36:14.363Z,65.62
2022-08-24T03:41:19.234Z,65.53
2022-08-24T03:46:25.149Z,65.99
2022-08-24T03:51:30.546Z,65.31
2022-08-24T03:56:35.290Z,63.28
2022-08-24T04:01:39.023Z,66.28
2022-08-24T04:06:46.613Z,68.09
2022-08-24T04:11:52.000Z,68.55
2022-08-24T04:16:58.163Z,68.84
2022-08-24T04:22:07.110Z,69.74
2022-08-24T04:27:12.107Z,69.86
2022-08-24T04:32:16.206Z,70.32
2022-08-24T04:37:27.028Z,70.41
2022-08-24T04:42:33.926Z,70.95
2022-08-24T04:47:37.130Z,71.72
2022-08-24T04:52:40.246Z,72.15
2022-08-24T04:57:44.375Z,72.16
2022-08-24T05:02:47.258Z,72.97
2022-08-24T05:07:53.441Z,73.36
2022-08-24T05:13:00.663Z,73.62
2022-08-24T05:18:04.251Z,73.87
2022-08-24T05:23:07.270Z,74.65
2022-08-24T05:28:12.847Z,75.37
2022-08-24T05:33:15.643Z,76.30
2022-08-24T05:38:18.428Z,76.49
2022-08-24T05:43:22.548Z,77.08
2022-08-24T05:48:26.140Z,77.33
2022-08-24T05:53:34.747Z,78.03
2022-08-24T05:58:40.803Z,78.43
2022-08-24T06:03:43.790Z,78.64
2022-08-24T06:08:51.857Z,78.89
2022-08-24T06:14:02.034Z,79.36
2022-08-24T06:19:08.303Z,79.57
2022-08-24T06:24:11.224Z,79.54
2022-08-24T06:29:16.023Z,79.61
2022-08-24T06:34:21.787Z,79.40
2022-08-24T06:39:24.556Z,79.76
2022-08-24T06:44:32.934Z,79.80
2022-08-24T06:49:43.850Z,79.27
2022-08-24T06:54:46.612Z,78.95
2022-08-24T06:59:50.901Z,78.58
2022-08-24T07:04:55.101Z,78.97
2022-08-24T07:10:16.565Z,78.31
2022-08-24T07:15:21.111Z,78.11
2022-08-24T07:20:35.482Z,79.08
2022-08-24T07:25:48.899Z,78.94
2022-08-24T07:30:56.691Z,77.88
2022-08-24T07:36:00.309Z,77.78
2022-08-24T07:41:36.355Z,77.48
2022-08-24T07:46:28.790Z,77.63
2022-08-24T07:56:41.310Z,77.26
2022-08-24T08:01:46.402Z,77.42
2022-08-24T08:06:49.384Z,77.60
2022-08-24T08:11:52.396Z,77.69
2022-08-24T08:16:57.219Z,77.80
2022-08-24T08:22:18.288Z,79.22
2022-08-24T08:27:41.071Z,77.78
2022-08-24T08:32:46.315Z,78.14
2022-08-24T08:37:49.517Z,77.91
2022-08-24T08:43:02.008Z,78.08
2022-08-24T08:48:44.898Z,78.75
2022-08-24T08:54:22.462Z,78.14
2022-08-24T08:59:41.449Z,77.53
2022-08-24T09:05:24.145Z,76.97
2022-08-24T09:10:47.812Z,76.23
2022-08-24T09:16:06.062Z,75.71
2022-08-24T09:21:41.940Z,75.54
2022-08-24T09:26:56.495Z,74.90
2022-08-24T09:32:16.360Z,74.91
2022-08-24T09:37:33.843Z,74.76
2022-08-24T09:43:09.403Z,74.32
2022-08-24T09:48:32.225Z,74.19
2022-08-24T09:54:17.683Z,73.93
2022-08-24T09:59:49.804Z,73.77
2022-08-24T10:05:09.433Z,74.20
2022-08-24T10:10:25.450Z,73.78
2022-08-24T10:15:32.237Z,73.55
2022-08-24T10:21:01.642Z,73.61
2022-08-24T10:26:18.761Z,73.40
2022-08-24T10:31:32.198Z,73.05
2022-08-24T10:36:57.612Z,73.34
2022-08-24T10:42:54.142Z,73.21
2022-08-24T10:48:12.636Z,73.15
2022-08-24T10:53:26.132Z,72.81
2022-08-24T10:58:49.432Z,72.53
2022-08-24T11:03:58.748Z,72.66
2022-08-24T11:09:06.250Z,72.33
2022-08-24T11:14:24.811Z,72.45
2022-08-24T11:19:34.980Z,72.66
2022-08-24T11:24:43.477Z,72.53
2022-08-24T11:29:59.855Z,72.59
2022-08-24T11:35:06.018Z,72.43
2022-08-24T11:40:11.265Z,72.39
2022-08-24T11:45:24.637Z,71.81
2022-08-24T11:50:36.676Z,72.09
2022-08-24T11:55:51.699Z,72.02
2022-08-24T12:01:09.384Z,71.81
2022-08-24T12:06:23.922Z,71.74
2022-08-24T12:11:42.147Z,71.69
2022-08-24T12:16:54.000Z,71.73
2022-08-24T12:21:59.413Z,71.67
2022-08-24T12:27:06.125Z,71.77
2022-08-24T12:32:14.901Z,71.57
2022-08-24T12:37:23.929Z,71.44
2022-08-24T12:42:35.162Z,71.35
2022-08-24T12:47:47.757Z,71.39
2022-08-24T12:53:20.556Z,71.55
2022-08-24T12:58:56.048Z,71.13
2022-08-24T13:04:20.331Z,71.69
2022-08-24T13:09:32.918Z,71.69
2022-08-24T13:14:35.876Z,72.12
2022-08-24T13:19:44.019Z,72.79
2022-08-24T13:24:48.221Z,73.20
2022-08-24T13:29:55.447Z,73.08
2022-08-24T13:35:00.477Z,73.26
2022-08-24T13:40:15.392Z,73.21
2022-08-24T13:45:37.865Z,72.97
2022-08-24T13:50:51.435Z,73.03
2022-08-24T13:55:57.105Z,73.18
2022-08-24T14:01:07.946Z,72.87
2022-08-24T14:06:28.636Z,73.03
2022-08-24T14:11:43.529Z,73.23
2022-08-24T14:17:19.605Z,73.33
2022-08-24T14:22:35.237Z,73.19
2022-08-24T14:27:42.356Z,73.29
2022-08-24T14:33:03.814Z,72.98
2022-08-24T14:38:43.031Z,72.94
2022-08-24T14:44:19.866Z,72.82
2022-08-24T14:49:35.568Z,72.99
2022-08-24T14:54:53.877Z,73.17
2022-08-24T15:00:12.133Z,72.91
2022-08-24T15:05:23.848Z,72.95
2022-08-24T15:10:34.845Z,72.81
2022-08-24T15:15:51.309Z,72.71
2022-08-24T15:21:24.762Z,71.89
2022-08-24T15:26:51.382Z,72.08
2022-08-24T15:32:01.307Z,71.67
2022-08-24T15:37:04.444Z,71.77
2022-08-24T15:42:14.173Z,71.50
2022-08-24T15:47:25.717Z,70.95
2022-08-24T15:52:44.899Z,71.00
2022-08-24T15:57:49.080Z,70.96
2022-08-24T16:02:52.092Z,70.61
2022-08-24T16:08:13.343Z,70.90
2022-08-24T16:13:28.228Z,70.65
2022-08-24T16:18:49.409Z,70.38
2022-08-24T16:23:56.565Z,70.43
2022-08-24T16:29:01.015Z,70.34
2022-08-24T16:34:18.678Z,70.03
2022-08-24T16:39:21.511Z,69.92
2022-08-24T16:44:27.698Z,69.93
2022-08-24T16:49:31.804Z,69.72
2022-08-24T16:54:35.074Z,69.71
2022-08-24T16:59:39.261Z,69.46
2022-08-24T17:04:43.092Z,69.29
2022-08-24T17:09:48.310Z,68.91
2022-08-24T17:14:53.563Z,68.89
2022-08-24T17:19:57.911Z,68.68
2022-08-24T17:25:00.769Z,68.51
2022-08-24T17:30:06.495Z,68.47
2022-08-24T17:35:09.707Z,68.66
2022-08-24T17:40:15.787Z,68.48
2022-08-24T17:45:22.707Z,68.38
2022-08-24T17:50:26.678Z,68.56
2022-08-24T17:55:29.687Z,68.45
2022-08-24T18:00:34.139Z,68.66
2022-08-24T18:05:37.344Z,68.69
2022-08-24T18:10:40.268Z,68.84
2022-08-24T18:15:44.446Z,68.90
2022-08-24T18:20:47.302Z,68.97
2022-08-24T18:25:52.688Z,69.30
2022-08-24T18:30:57.109Z,69.45
2022-08-24T18:36:00.160Z,69.60
2022-08-24T18:41:03.638Z,69.22
2022-08-24T18:46:09.590Z,69.50
2022-08-24T18:51:16.098Z,69.67
2022-08-24T18:56:18.856Z,69.50
2022-08-24T19:01:23.384Z,69.27
2022-08-24T19:06:26.301Z,69.08
2022-08-24T19:11:29.066Z,68.69
2022-08-24T19:16:35.194Z,68.55
2022-08-24T19:21:38.939Z,68.42
2022-08-24T19:26:44.584Z,68.46
2022-08-24T19:31:49.298Z,68.12
2022-08-24T19:36:52.300Z,68.42
2022-08-24T19:41:55.283Z,68.20
2022-08-24T19:47:00.093Z,68.28
2022-08-24T19:52:03.794Z,68.27
2022-08-24T19:57:41.724Z,68.67
2022-08-24T20:02:46.044Z,68.87
2022-08-24T20:07:49.749Z,68.65
2022-08-24T20:12:53.374Z,68.88
2022-08-24T20:17:59.038Z,68.79
2022-08-24T20:23:05.973Z,68.67
2022-08-24T20:28:28.634Z,68.87
2022-08-24T20:33:33.455Z,68.96
2022-08-24T20:38:36.278Z,68.90
2022-08-24T20:43:39.758Z,69.01
2022-08-24T20:48:44.697Z,69.03
2022-08-24T20:53:48.485Z,69.12
2022-08-24T20:58:51.910Z,69.10
2022-08-24T21:03:59.279Z,69.04
2022-08-24T21:09:05.701Z,69.31
2022-08-24T21:14:08.497Z,68.94
2022-08-24T21:19:17.598Z,69.04
2022-08-24T21:24:20.656Z,69.09
2022-08-24T21:29:23.484Z,69.01
2022-08-24T21:34:42.745Z,68.98
2022-08-24T21:39:48.437Z,68.74
2022-08-24T21:44:51.515Z,69.07
2022-08-24T21:49:55.743Z,68.76
2022-08-24T21:54:59.455Z,68.80
2022-08-24T22:00:02.781Z,68.71
2022-08-24T22:05:09.378Z,68.72
2022-08-24T22:10:13.745Z,68.59
2022-08-24T22:15:17.108Z,68.89
2022-08-24T22:20:27.500Z,68.79
2022-08-24T22:25:31.422Z,68.93
2022-08-24T22:30:34.820Z,68.81
2022-08-24T22:35:45.192Z,69.01
2022-08-24T22:40:54.492Z,68.88
2022-08-24T22:45:57.412Z,69.10
2022-08-24T22:51:01.544Z,69.04
2022-08-24T22:56:04.812Z,69.08
2022-08-24T23:01:07.652Z,69.17
2022-08-24T23:06:11.773Z,69.35
2022-08-24T23:11:15.201Z,69.46
2022-08-24T23:16:18.257Z,69.51
2022-08-24T23:21:22.536Z,69.45
2022-08-24T23:26:25.794Z,69.61
2022-08-24T23:31:29.015Z,69.64
2022-08-24T23:36:33.260Z,69.64
2022-08-24T23:41:38.407Z,69.59
2022-08-24T23:46:41.484Z,69.59
2022-08-24T23:51:45.669Z,69.59
2022-08-24T23:56:49.886Z,69.73
